sensor_id;sensor_type;location;lat;lon;timestamp;temperature;humidity
32348;DHT22;18821;44.800;10.326;2022-10-16T00:00:35;18.70;99.90
32348;DHT22;18821;44.800;10.326;2022-10-16T00:03:02;18.70;99.90
32348;DHT22;18821;44.800;10.326;2022-10-16T00:05:28;18.60;99.90
32348;DHT22;18821;44.800;10.326;2022-10-16T00:07:54;18.70;99.90
32348;DHT22;18821;44.800;10.326;2022-10-16T00:10:21;18.70;99.90
32348;DHT22;18821;44.800;10.326;2022-10-16T00:12:47;18.70;99.90
32348;DHT22;18821;44.800;10.326;2022-10-16T00:15:13;18.70;99.90
32348;DHT22;18821;44.800;10.326;2022-10-16T00:17:39;18.70;99.90
32348;DHT22;18821;44.800;10.326;2022-10-16T00:20:05;18.60;99.90
32348;DHT22;18821;44.800;10.326;2022-10-16T00:22:50;18.60;99.90
32348;DHT22;18821;44.800;10.326;2022-10-16T00:25:16;18.60;99.90
32348;DHT22;18821;44.800;10.326;2022-10-16T00:27:41;18.60;99.90
32348;DHT22;18821;44.800;10.326;2022-10-16T00:30:08;18.60;99.90
32348;DHT22;18821;44.800;10.326;2022-10-16T00:32:35;18.60;99.90
32348;DHT22;18821;44.800;10.326;2022-10-16T00:35:01;18.60;99.90
32348;DHT22;18821;44.800;10.326;2022-10-16T00:37:27;18.60;99.90
32348;DHT22;18821;44.800;10.326;2022-10-16T00:39:53;18.60;99.90
32348;DHT22;18821;44.800;10.326;2022-10-16T00:42:19;18.60;99.90
32348;DHT22;18821;44.800;10.326;2022-10-16T00:44:51;18.50;99.90
32348;DHT22;18821;44.800;10.326;2022-10-16T00:47:29;18.50;99.90
32348;DHT22;18821;44.800;10.326;2022-10-16T00:50:06;18.50;99.90
32348;DHT22;18821;44.800;10.326;2022-10-16T00:52:33;18.50;99.90
32348;DHT22;18821;44.800;10.326;2022-10-16T00:55:00;18.50;99.90
32348;DHT22;18821;44.800;10.326;2022-10-16T00:57:27;18.50;99.90
32348;DHT22;18821;44.800;10.326;2022-10-16T00:59:53;18.50;99.90
32348;DHT22;18821;44.800;10.326;2022-10-16T01:02:19;18.50;99.90
32348;DHT22;18821;44.800;10.326;2022-10-16T01:04:51;18.50;99.90
32348;DHT22;18821;44.800;10.326;2022-10-16T01:07:33;18.50;99.90
32348;DHT22;18821;44.800;10.326;2022-10-16T01:13:09;18.50;99.90
32348;DHT22;18821;44.800;10.326;2022-10-16T01:15:49;18.50;99.90
32348;DHT22;18821;44.800;10.326;2022-10-16T01:18:19;18.50;99.90
32348;DHT22;18821;44.800;10.326;2022-10-16T01:20:53;18.50;99.90
32348;DHT22;18821;44.800;10.326;2022-10-16T01:23:37;18.50;99.90
32348;DHT22;18821;44.800;10.326;2022-10-16T01:31:09;18.50;99.90
32348;DHT22;18821;44.800;10.326;2022-10-16T01:33:43;18.50;99.90
32348;DHT22;18821;44.800;10.326;2022-10-16T01:36:15;18.50;99.90
32348;DHT22;18821;44.800;10.326;2022-10-16T01:38:45;18.40;99.90
32348;DHT22;18821;44.800;10.326;2022-10-16T01:41:18;18.40;99.90
32348;DHT22;18821;44.800;10.326;2022-10-16T01:44:08;18.50;99.90
32348;DHT22;18821;44.800;10.326;2022-10-16T01:46:38;18.50;99.90
32348;DHT22;18821;44.800;10.326;2022-10-16T01:49:06;18.50;99.90
32348;DHT22;18821;44.800;10.326;2022-10-16T01:51:35;18.50;99.90
32348;DHT22;18821;44.800;10.326;2022-10-16T01:54:02;18.40;99.90
32348;DHT22;18821;44.800;10.326;2022-10-16T01:56:30;18.40;99.90
32348;DHT22;18821;44.800;10.326;2022-10-16T01:59:07;18.40;99.90
32348;DHT22;18821;44.800;10.326;2022-10-16T02:01:39;18.40;99.90
32348;DHT22;18821;44.800;10.326;2022-10-16T02:04:32;18.40;99.90
32348;DHT22;18821;44.800;10.326;2022-10-16T02:06:58;18.40;99.90
32348;DHT22;18821;44.800;10.326;2022-10-16T02:09:24;18.50;99.90
32348;DHT22;18821;44.800;10.326;2022-10-16T02:11:53;18.40;99.90
32348;DHT22;18821;44.800;10.326;2022-10-16T02:14:21;18.40;99.90
32348;DHT22;18821;44.800;10.326;2022-10-16T02:16:51;18.40;99.90
32348;DHT22;18821;44.800;10.326;2022-10-16T02:19:18;18.40;99.90
32348;DHT22;18821;44.800;10.326;2022-10-16T02:22:02;18.40;99.90
32348;DHT22;18821;44.800;10.326;2022-10-16T02:24:39;18.40;99.90
32348;DHT22;18821;44.800;10.326;2022-10-16T02:30:22;18.40;99.90
32348;DHT22;18821;44.800;10.326;2022-10-16T02:32:50;18.40;99.90
32348;DHT22;18821;44.800;10.326;2022-10-16T02:35:18;18.30;99.90
32348;DHT22;18821;44.800;10.326;2022-10-16T02:37:46;18.30;99.90
32348;DHT22;18821;44.800;10.326;2022-10-16T02:40:13;18.30;99.90
32348;DHT22;18821;44.800;10.326;2022-10-16T02:42:40;18.30;99.90
32348;DHT22;18821;44.800;10.326;2022-10-16T02:45:08;18.30;99.90
32348;DHT22;18821;44.800;10.326;2022-10-16T02:47:35;18.20;99.90
32348;DHT22;18821;44.800;10.326;2022-10-16T02:50:03;18.20;99.90
32348;DHT22;18821;44.800;10.326;2022-10-16T02:52:31;18.20;99.90
32348;DHT22;18821;44.800;10.326;2022-10-16T02:54:57;18.20;99.90
32348;DHT22;18821;44.800;10.326;2022-10-16T02:57:23;18.10;99.90
32348;DHT22;18821;44.800;10.326;2022-10-16T02:59:48;18.20;99.90
32348;DHT22;18821;44.800;10.326;2022-10-16T03:02:14;18.10;99.90
32348;DHT22;18821;44.800;10.326;2022-10-16T03:04:40;18.10;99.90
32348;DHT22;18821;44.800;10.326;2022-10-16T03:07:06;18.10;99.90
32348;DHT22;18821;44.800;10.326;2022-10-16T03:09:33;18.10;99.90
32348;DHT22;18821;44.800;10.326;2022-10-16T03:11:59;18.10;99.90
32348;DHT22;18821;44.800;10.326;2022-10-16T03:14:25;18.10;99.90
32348;DHT22;18821;44.800;10.326;2022-10-16T03:16:51;18.10;99.90
32348;DHT22;18821;44.800;10.326;2022-10-16T03:19:17;18.10;99.90
32348;DHT22;18821;44.800;10.326;2022-10-16T03:21:44;18.10;99.90
32348;DHT22;18821;44.800;10.326;2022-10-16T03:24:10;18.10;99.90
32348;DHT22;18821;44.800;10.326;2022-10-16T03:26:36;18.10;99.90
32348;DHT22;18821;44.800;10.326;2022-10-16T03:29:02;18.10;99.90
32348;DHT22;18821;44.800;10.326;2022-10-16T03:31:29;18.00;99.90
32348;DHT22;18821;44.800;10.326;2022-10-16T03:33:55;18.10;99.90
32348;DHT22;18821;44.800;10.326;2022-10-16T03:36:22;18.00;99.90
32348;DHT22;18821;44.800;10.326;2022-10-16T03:38:48;18.00;99.90
32348;DHT22;18821;44.800;10.326;2022-10-16T03:41:14;18.00;99.90
32348;DHT22;18821;44.800;10.326;2022-10-16T03:43:40;18.00;99.90
32348;DHT22;18821;44.800;10.326;2022-10-16T03:46:06;18.00;99.90
32348;DHT22;18821;44.800;10.326;2022-10-16T03:48:31;18.00;99.90
32348;DHT22;18821;44.800;10.326;2022-10-16T03:50:58;18.00;99.90
32348;DHT22;18821;44.800;10.326;2022-10-16T03:53:24;18.00;99.90
32348;DHT22;18821;44.800;10.326;2022-10-16T03:55:50;17.90;99.90
32348;DHT22;18821;44.800;10.326;2022-10-16T03:58:16;17.90;99.90
32348;DHT22;18821;44.800;10.326;2022-10-16T04:00:44;17.90;99.90
32348;DHT22;18821;44.800;10.326;2022-10-16T04:03:11;17.90;99.90
32348;DHT22;18821;44.800;10.326;2022-10-16T04:05:37;17.80;99.90
32348;DHT22;18821;44.800;10.326;2022-10-16T04:08:04;17.80;99.90
32348;DHT22;18821;44.800;10.326;2022-10-16T04:10:30;17.80;99.90
32348;DHT22;18821;44.800;10.326;2022-10-16T04:12:56;17.70;99.90
32348;DHT22;18821;44.800;10.326;2022-10-16T04:15:26;17.70;99.90
32348;DHT22;18821;44.800;10.326;2022-10-16T04:17:52;17.70;99.90
32348;DHT22;18821;44.800;10.326;2022-10-16T04:20:19;17.70;99.90
32348;DHT22;18821;44.800;10.326;2022-10-16T04:22:45;17.70;99.90
32348;DHT22;18821;44.800;10.326;2022-10-16T04:25:11;17.70;99.90
32348;DHT22;18821;44.800;10.326;2022-10-16T04:27:39;17.70;99.90
32348;DHT22;18821;44.800;10.326;2022-10-16T04:30:05;17.70;99.90
32348;DHT22;18821;44.800;10.326;2022-10-16T04:32:31;17.70;99.90
32348;DHT22;18821;44.800;10.326;2022-10-16T04:34:57;17.60;99.90
32348;DHT22;18821;44.800;10.326;2022-10-16T04:37:25;17.60;99.90
32348;DHT22;18821;44.800;10.326;2022-10-16T04:39:51;17.60;99.90
32348;DHT22;18821;44.800;10.326;2022-10-16T04:42:17;17.60;99.90
32348;DHT22;18821;44.800;10.326;2022-10-16T04:44:43;17.60;99.90
32348;DHT22;18821;44.800;10.326;2022-10-16T04:47:10;17.50;99.90
32348;DHT22;18821;44.800;10.326;2022-10-16T04:49:36;17.50;99.90
32348;DHT22;18821;44.800;10.326;2022-10-16T04:52:03;17.40;99.90
32348;DHT22;18821;44.800;10.326;2022-10-16T04:54:31;17.40;99.90
32348;DHT22;18821;44.800;10.326;2022-10-16T04:56:57;17.30;99.90
32348;DHT22;18821;44.800;10.326;2022-10-16T04:59:24;17.30;99.90
32348;DHT22;18821;44.800;10.326;2022-10-16T05:01:50;17.20;99.90
32348;DHT22;18821;44.800;10.326;2022-10-16T05:04:16;17.20;99.90
32348;DHT22;18821;44.800;10.326;2022-10-16T05:06:43;17.30;99.90
32348;DHT22;18821;44.800;10.326;2022-10-16T05:09:09;17.20;99.90
32348;DHT22;18821;44.800;10.326;2022-10-16T05:11:35;17.20;99.90
32348;DHT22;18821;44.800;10.326;2022-10-16T05:14:01;17.10;99.90
32348;DHT22;18821;44.800;10.326;2022-10-16T05:16:28;17.10;99.90
32348;DHT22;18821;44.800;10.326;2022-10-16T05:18:54;17.00;99.90
32348;DHT22;18821;44.800;10.326;2022-10-16T05:21:20;17.00;99.90
32348;DHT22;18821;44.800;10.326;2022-10-16T05:23:46;17.00;99.90
32348;DHT22;18821;44.800;10.326;2022-10-16T05:26:13;17.00;99.90
32348;DHT22;18821;44.800;10.326;2022-10-16T05:28:39;17.00;99.90
32348;DHT22;18821;44.800;10.326;2022-10-16T05:31:09;17.00;99.90
32348;DHT22;18821;44.800;10.326;2022-10-16T05:33:35;17.00;99.90
32348;DHT22;18821;44.800;10.326;2022-10-16T05:36:07;17.00;99.90
32348;DHT22;18821;44.800;10.326;2022-10-16T05:38:35;17.00;99.90
32348;DHT22;18821;44.800;10.326;2022-10-16T05:41:01;17.00;99.90
32348;DHT22;18821;44.800;10.326;2022-10-16T05:43:28;17.00;99.90
32348;DHT22;18821;44.800;10.326;2022-10-16T05:45:56;17.00;99.90
32348;DHT22;18821;44.800;10.326;2022-10-16T05:48:23;17.00;99.90
32348;DHT22;18821;44.800;10.326;2022-10-16T05:53:24;17.00;99.90
32348;DHT22;18821;44.800;10.326;2022-10-16T05:55:55;17.00;99.90
32348;DHT22;18821;44.800;10.326;2022-10-16T05:58:21;17.10;99.90
32348;DHT22;18821;44.800;10.326;2022-10-16T06:00:59;17.10;99.90
32348;DHT22;18821;44.800;10.326;2022-10-16T06:03:26;17.10;99.90
32348;DHT22;18821;44.800;10.326;2022-10-16T06:05:52;17.10;99.90
32348;DHT22;18821;44.800;10.326;2022-10-16T06:08:19;17.10;99.90
32348;DHT22;18821;44.800;10.326;2022-10-16T06:10:46;17.20;99.90
32348;DHT22;18821;44.800;10.326;2022-10-16T06:13:13;17.30;99.90
32348;DHT22;18821;44.800;10.326;2022-10-16T06:15:41;17.30;99.90
32348;DHT22;18821;44.800;10.326;2022-10-16T06:18:10;17.30;99.90
32348;DHT22;18821;44.800;10.326;2022-10-16T06:20:36;17.30;99.90
32348;DHT22;18821;44.800;10.326;2022-10-16T06:23:03;17.30;99.90
32348;DHT22;18821;44.800;10.326;2022-10-16T06:25:30;17.30;99.90
32348;DHT22;18821;44.800;10.326;2022-10-16T06:27:57;17.30;99.90
32348;DHT22;18821;44.800;10.326;2022-10-16T06:30:23;17.40;99.90
32348;DHT22;18821;44.800;10.326;2022-10-16T06:32:48;17.40;99.90
32348;DHT22;18821;44.800;10.326;2022-10-16T06:35:14;17.40;99.90
32348;DHT22;18821;44.800;10.326;2022-10-16T06:37:40;17.40;99.90
32348;DHT22;18821;44.800;10.326;2022-10-16T06:40:06;17.50;99.90
32348;DHT22;18821;44.800;10.326;2022-10-16T06:42:34;17.50;99.90
32348;DHT22;18821;44.800;10.326;2022-10-16T06:45:00;17.50;99.90
32348;DHT22;18821;44.800;10.326;2022-10-16T06:47:27;17.60;99.90
32348;DHT22;18821;44.800;10.326;2022-10-16T06:49:53;17.60;99.90
32348;DHT22;18821;44.800;10.326;2022-10-16T06:52:19;17.70;99.90
32348;DHT22;18821;44.800;10.326;2022-10-16T06:54:44;17.70;99.90
32348;DHT22;18821;44.800;10.326;2022-10-16T06:57:10;17.80;99.90
32348;DHT22;18821;44.800;10.326;2022-10-16T06:59:36;17.80;99.90
32348;DHT22;18821;44.800;10.326;2022-10-16T07:02:02;17.80;99.90
32348;DHT22;18821;44.800;10.326;2022-10-16T07:04:28;17.90;99.90
32348;DHT22;18821;44.800;10.326;2022-10-16T07:06:54;17.90;99.90
32348;DHT22;18821;44.800;10.326;2022-10-16T07:09:20;17.90;99.90
32348;DHT22;18821;44.800;10.326;2022-10-16T07:11:49;18.00;99.90
32348;DHT22;18821;44.800;10.326;2022-10-16T07:14:17;18.00;99.90
32348;DHT22;18821;44.800;10.326;2022-10-16T07:16:43;18.10;99.90
32348;DHT22;18821;44.800;10.326;2022-10-16T07:19:09;18.20;99.90
32348;DHT22;18821;44.800;10.326;2022-10-16T07:21:37;18.20;99.90
32348;DHT22;18821;44.800;10.326;2022-10-16T07:24:11;18.30;99.90
32348;DHT22;18821;44.800;10.326;2022-10-16T07:26:38;18.40;99.90
32348;DHT22;18821;44.800;10.326;2022-10-16T07:29:23;18.50;99.90
32348;DHT22;18821;44.800;10.326;2022-10-16T07:31:49;18.60;99.90
32348;DHT22;18821;44.800;10.326;2022-10-16T07:34:17;18.60;99.90
32348;DHT22;18821;44.800;10.326;2022-10-16T07:36:43;18.70;99.90
32348;DHT22;18821;44.800;10.326;2022-10-16T07:39:09;18.70;99.90
32348;DHT22;18821;44.800;10.326;2022-10-16T07:41:35;18.70;99.90
32348;DHT22;18821;44.800;10.326;2022-10-16T07:44:03;18.80;99.90
32348;DHT22;18821;44.800;10.326;2022-10-16T07:46:29;18.90;99.90
32348;DHT22;18821;44.800;10.326;2022-10-16T07:48:55;19.00;99.90
32348;DHT22;18821;44.800;10.326;2022-10-16T07:51:23;19.00;99.90
32348;DHT22;18821;44.800;10.326;2022-10-16T07:53:50;18.90;99.90
32348;DHT22;18821;44.800;10.326;2022-10-16T07:56:17;18.80;99.90
32348;DHT22;18821;44.800;10.326;2022-10-16T07:58:44;18.80;99.90
32348;DHT22;18821;44.800;10.326;2022-10-16T08:01:13;18.80;99.90
32348;DHT22;18821;44.800;10.326;2022-10-16T08:03:42;19.00;99.90
32348;DHT22;18821;44.800;10.326;2022-10-16T08:06:08;19.20;99.90
32348;DHT22;18821;44.800;10.326;2022-10-16T08:08:34;19.10;99.90
32348;DHT22;18821;44.800;10.326;2022-10-16T08:11:00;19.00;99.90
32348;DHT22;18821;44.800;10.326;2022-10-16T08:13:30;18.90;99.90
32348;DHT22;18821;44.800;10.326;2022-10-16T08:15:56;18.90;99.90
32348;DHT22;18821;44.800;10.326;2022-10-16T08:18:22;19.10;99.90
32348;DHT22;18821;44.800;10.326;2022-10-16T08:20:58;19.40;99.90
32348;DHT22;18821;44.800;10.326;2022-10-16T08:23:25;19.60;99.90
32348;DHT22;18821;44.800;10.326;2022-10-16T08:25:55;19.80;99.90
32348;DHT22;18821;44.800;10.326;2022-10-16T08:28:21;19.80;99.90
32348;DHT22;18821;44.800;10.326;2022-10-16T08:30:48;20.00;99.90
32348;DHT22;18821;44.800;10.326;2022-10-16T08:33:15;20.00;99.90
32348;DHT22;18821;44.800;10.326;2022-10-16T08:35:41;20.20;99.90
32348;DHT22;18821;44.800;10.326;2022-10-16T08:38:06;20.30;99.90
32348;DHT22;18821;44.800;10.326;2022-10-16T08:40:34;20.10;99.90
32348;DHT22;18821;44.800;10.326;2022-10-16T08:48:57;20.60;99.90
32348;DHT22;18821;44.800;10.326;2022-10-16T08:51:28;20.70;99.90
32348;DHT22;18821;44.800;10.326;2022-10-16T08:54:06;20.80;99.90
32348;DHT22;18821;44.800;10.326;2022-10-16T08:56:32;20.90;99.90
32348;DHT22;18821;44.800;10.326;2022-10-16T08:58:59;21.00;99.90
32348;DHT22;18821;44.800;10.326;2022-10-16T09:01:40;21.10;99.90
32348;DHT22;18821;44.800;10.326;2022-10-16T09:14:35;21.20;99.90
32348;DHT22;18821;44.800;10.326;2022-10-16T09:19:57;21.40;99.90
32348;DHT22;18821;44.800;10.326;2022-10-16T09:22:27;21.50;99.90
32348;DHT22;18821;44.800;10.326;2022-10-16T09:25:00;21.60;99.90
32348;DHT22;18821;44.800;10.326;2022-10-16T09:27:26;21.50;99.90
32348;DHT22;18821;44.800;10.326;2022-10-16T09:29:52;21.60;99.90
32348;DHT22;18821;44.800;10.326;2022-10-16T09:32:20;21.50;99.90
32348;DHT22;18821;44.800;10.326;2022-10-16T09:34:49;21.50;99.90
32348;DHT22;18821;44.800;10.326;2022-10-16T09:37:21;21.40;99.90
32348;DHT22;18821;44.800;10.326;2022-10-16T09:39:52;21.00;99.90
32348;DHT22;18821;44.800;10.326;2022-10-16T09:42:24;20.90;99.90
32348;DHT22;18821;44.800;10.326;2022-10-16T09:44:54;21.20;99.90
32348;DHT22;18821;44.800;10.326;2022-10-16T09:47:23;21.50;99.90
32348;DHT22;18821;44.800;10.326;2022-10-16T09:52:21;21.50;99.90
32348;DHT22;18821;44.800;10.326;2022-10-16T09:54:51;21.60;99.90
32348;DHT22;18821;44.800;10.326;2022-10-16T09:57:17;21.70;99.90
32348;DHT22;18821;44.800;10.326;2022-10-16T09:59:56;21.30;99.90
32348;DHT22;18821;44.800;10.326;2022-10-16T10:02:43;21.20;99.90
32348;DHT22;18821;44.800;10.326;2022-10-16T10:05:24;21.30;99.90
32348;DHT22;18821;44.800;10.326;2022-10-16T10:07:59;21.50;99.90
32348;DHT22;18821;44.800;10.326;2022-10-16T10:10:27;21.70;99.90
32348;DHT22;18821;44.800;10.326;2022-10-16T10:12:54;21.50;99.90
32348;DHT22;18821;44.800;10.326;2022-10-16T10:15:22;21.50;99.90
32348;DHT22;18821;44.800;10.326;2022-10-16T10:17:55;21.70;99.90
32348;DHT22;18821;44.800;10.326;2022-10-16T10:20:33;21.60;99.90
32348;DHT22;18821;44.800;10.326;2022-10-16T10:23:22;21.80;99.90
32348;DHT22;18821;44.800;10.326;2022-10-16T10:31:17;21.90;99.90
32348;DHT22;18821;44.800;10.326;2022-10-16T10:47:52;22.60;99.90
32348;DHT22;18821;44.800;10.326;2022-10-16T10:53:06;23.10;99.90
32348;DHT22;18821;44.800;10.326;2022-10-16T10:58:35;23.40;99.90
32348;DHT22;18821;44.800;10.326;2022-10-16T11:01:18;23.00;99.90
32348;DHT22;18821;44.800;10.326;2022-10-16T11:06:55;22.90;99.90
32348;DHT22;18821;44.800;10.326;2022-10-16T11:09:44;22.60;99.90
32348;DHT22;18821;44.800;10.326;2022-10-16T11:12:32;22.70;99.90
32348;DHT22;18821;44.800;10.326;2022-10-16T11:15:13;22.70;99.90
32348;DHT22;18821;44.800;10.326;2022-10-16T11:17:44;22.70;99.90
32348;DHT22;18821;44.800;10.326;2022-10-16T11:20:16;22.90;99.90
32348;DHT22;18821;44.800;10.326;2022-10-16T11:22:56;23.00;99.90
32348;DHT22;18821;44.800;10.326;2022-10-16T11:25:27;22.80;99.90
32348;DHT22;18821;44.800;10.326;2022-10-16T11:36:31;22.50;99.90
32348;DHT22;18821;44.800;10.326;2022-10-16T11:41:44;22.90;99.90
32348;DHT22;18821;44.800;10.326;2022-10-16T11:50:02;23.10;99.90
32348;DHT22;18821;44.800;10.326;2022-10-16T11:57:45;23.50;99.90
32348;DHT22;18821;44.800;10.326;2022-10-16T12:00:24;23.30;99.90
32348;DHT22;18821;44.800;10.326;2022-10-16T12:08:27;22.80;99.90
32348;DHT22;18821;44.800;10.326;2022-10-16T12:11:05;22.80;99.90
32348;DHT22;18821;44.800;10.326;2022-10-16T12:13:37;22.80;99.90
32348;DHT22;18821;44.800;10.326;2022-10-16T12:18:45;23.50;99.90
32348;DHT22;18821;44.800;10.326;2022-10-16T12:21:13;23.60;99.90
32348;DHT22;18821;44.800;10.326;2022-10-16T12:26:13;23.80;99.90
32348;DHT22;18821;44.800;10.326;2022-10-16T12:28:39;23.80;99.90
32348;DHT22;18821;44.800;10.326;2022-10-16T12:31:08;23.50;99.90
32348;DHT22;18821;44.800;10.326;2022-10-16T12:33:40;23.40;99.90
32348;DHT22;18821;44.800;10.326;2022-10-16T12:36:15;23.50;99.90
32348;DHT22;18821;44.800;10.326;2022-10-16T12:38:49;23.60;99.90
32348;DHT22;18821;44.800;10.326;2022-10-16T12:41:26;23.40;99.90
32348;DHT22;18821;44.800;10.326;2022-10-16T12:43:53;23.50;99.90
32348;DHT22;18821;44.800;10.326;2022-10-16T12:48:45;23.50;99.90
32348;DHT22;18821;44.800;10.326;2022-10-16T12:54:02;23.80;99.90
32348;DHT22;18821;44.800;10.326;2022-10-16T12:56:41;23.80;99.90
32348;DHT22;18821;44.800;10.326;2022-10-16T12:59:25;23.70;99.90
32348;DHT22;18821;44.800;10.326;2022-10-16T13:07:59;23.80;99.90
32348;DHT22;18821;44.800;10.326;2022-10-16T13:23:49;24.70;99.90
32348;DHT22;18821;44.800;10.326;2022-10-16T13:28:48;24.40;99.90
32348;DHT22;18821;44.800;10.326;2022-10-16T13:31:18;24.30;99.90
32348;DHT22;18821;44.800;10.326;2022-10-16T13:33:52;24.30;99.90
32348;DHT22;18821;44.800;10.326;2022-10-16T13:36:26;24.60;99.90
32348;DHT22;18821;44.800;10.326;2022-10-16T13:39:28;24.70;99.90
32348;DHT22;18821;44.800;10.326;2022-10-16T13:42:22;24.60;99.90
32348;DHT22;18821;44.800;10.326;2022-10-16T13:44:51;24.80;99.90
32348;DHT22;18821;44.800;10.326;2022-10-16T13:47:28;24.90;99.90
32348;DHT22;18821;44.800;10.326;2022-10-16T13:50:12;25.10;99.90
32348;DHT22;18821;44.800;10.326;2022-10-16T13:52:39;25.20;99.90
32348;DHT22;18821;44.800;10.326;2022-10-16T13:57:36;24.90;99.90
32348;DHT22;18821;44.800;10.326;2022-10-16T14:00:03;24.70;99.90
32348;DHT22;18821;44.800;10.326;2022-10-16T14:02:42;24.60;99.90
32348;DHT22;18821;44.800;10.326;2022-10-16T14:05:09;24.60;99.90
32348;DHT22;18821;44.800;10.326;2022-10-16T14:07:36;24.70;99.90
32348;DHT22;18821;44.800;10.326;2022-10-16T14:10:29;24.70;99.90
32348;DHT22;18821;44.800;10.326;2022-10-16T14:13:04;24.70;99.90
32348;DHT22;18821;44.800;10.326;2022-10-16T14:15:32;24.80;99.90
32348;DHT22;18821;44.800;10.326;2022-10-16T14:17:59;24.90;99.90
32348;DHT22;18821;44.800;10.326;2022-10-16T14:20:28;25.00;99.90
32348;DHT22;18821;44.800;10.326;2022-10-16T14:23:03;24.90;99.90
32348;DHT22;18821;44.800;10.326;2022-10-16T14:25:31;25.00;99.90
32348;DHT22;18821;44.800;10.326;2022-10-16T14:28:18;24.90;99.90
32348;DHT22;18821;44.800;10.326;2022-10-16T14:30:54;24.80;99.90
32348;DHT22;18821;44.800;10.326;2022-10-16T14:38:41;24.60;99.90
32348;DHT22;18821;44.800;10.326;2022-10-16T14:41:08;24.50;99.90
32348;DHT22;18821;44.800;10.326;2022-10-16T14:43:42;24.60;99.90
32348;DHT22;18821;44.800;10.326;2022-10-16T14:46:20;24.60;99.90
32348;DHT22;18821;44.800;10.326;2022-10-16T14:48:49;24.60;99.90
32348;DHT22;18821;44.800;10.326;2022-10-16T14:51:17;24.50;99.90
32348;DHT22;18821;44.800;10.326;2022-10-16T14:53:44;24.60;99.90
32348;DHT22;18821;44.800;10.326;2022-10-16T14:56:19;24.60;99.90
32348;DHT22;18821;44.800;10.326;2022-10-16T14:58:50;24.60;99.90
32348;DHT22;18821;44.800;10.326;2022-10-16T15:01:16;24.50;99.90
32348;DHT22;18821;44.800;10.326;2022-10-16T15:03:43;24.40;99.90
32348;DHT22;18821;44.800;10.326;2022-10-16T15:06:14;24.30;99.90
32348;DHT22;18821;44.800;10.326;2022-10-16T15:08:41;24.30;99.90
32348;DHT22;18821;44.800;10.326;2022-10-16T15:11:16;24.20;99.90
32348;DHT22;18821;44.800;10.326;2022-10-16T15:13:42;24.10;99.90
32348;DHT22;18821;44.800;10.326;2022-10-16T15:16:16;24.10;99.90
32348;DHT22;18821;44.800;10.326;2022-10-16T15:18:44;24.00;99.90
32348;DHT22;18821;44.800;10.326;2022-10-16T15:21:40;24.00;99.90
32348;DHT22;18821;44.800;10.326;2022-10-16T15:24:11;23.90;99.90
32348;DHT22;18821;44.800;10.326;2022-10-16T15:26:38;24.00;99.90
32348;DHT22;18821;44.800;10.326;2022-10-16T15:29:04;23.90;99.90
32348;DHT22;18821;44.800;10.326;2022-10-16T15:31:31;23.80;99.90
32348;DHT22;18821;44.800;10.326;2022-10-16T15:33:57;23.70;99.90
32348;DHT22;18821;44.800;10.326;2022-10-16T15:36:35;23.60;99.90
32348;DHT22;18821;44.800;10.326;2022-10-16T15:39:17;23.50;99.90
32348;DHT22;18821;44.800;10.326;2022-10-16T15:41:45;23.50;99.90
32348;DHT22;18821;44.800;10.326;2022-10-16T15:44:17;23.50;99.90
32348;DHT22;18821;44.800;10.326;2022-10-16T15:46:43;23.40;99.90
32348;DHT22;18821;44.800;10.326;2022-10-16T15:49:10;23.30;99.90
32348;DHT22;18821;44.800;10.326;2022-10-16T15:51:41;23.30;99.90
32348;DHT22;18821;44.800;10.326;2022-10-16T15:54:08;23.20;99.90
32348;DHT22;18821;44.800;10.326;2022-10-16T15:56:34;23.10;99.90
32348;DHT22;18821;44.800;10.326;2022-10-16T15:59:03;23.10;99.90
32348;DHT22;18821;44.800;10.326;2022-10-16T16:01:35;23.00;99.90
32348;DHT22;18821;44.800;10.326;2022-10-16T16:04:07;23.00;99.90
32348;DHT22;18821;44.800;10.326;2022-10-16T16:06:34;22.90;99.90
32348;DHT22;18821;44.800;10.326;2022-10-16T16:09:06;22.80;99.90
32348;DHT22;18821;44.800;10.326;2022-10-16T16:11:32;22.80;99.90
32348;DHT22;18821;44.800;10.326;2022-10-16T16:14:03;22.70;99.90
32348;DHT22;18821;44.800;10.326;2022-10-16T16:16:29;22.60;99.90
32348;DHT22;18821;44.800;10.326;2022-10-16T16:18:54;22.60;99.90
32348;DHT22;18821;44.800;10.326;2022-10-16T16:21:21;22.50;99.90
32348;DHT22;18821;44.800;10.326;2022-10-16T16:23:47;22.40;99.90
32348;DHT22;18821;44.800;10.326;2022-10-16T16:26:24;22.30;99.90
32348;DHT22;18821;44.800;10.326;2022-10-16T16:28:54;22.20;99.90
32348;DHT22;18821;44.800;10.326;2022-10-16T16:31:24;22.10;99.90
32348;DHT22;18821;44.800;10.326;2022-10-16T16:33:50;22.00;99.90
32348;DHT22;18821;44.800;10.326;2022-10-16T16:36:17;21.90;99.90
32348;DHT22;18821;44.800;10.326;2022-10-16T16:38:44;21.90;99.90
32348;DHT22;18821;44.800;10.326;2022-10-16T16:41:24;21.80;99.90
32348;DHT22;18821;44.800;10.326;2022-10-16T16:43:52;21.80;99.90
32348;DHT22;18821;44.800;10.326;2022-10-16T16:46:18;21.60;99.90
32348;DHT22;18821;44.800;10.326;2022-10-16T16:48:45;21.50;99.90
32348;DHT22;18821;44.800;10.326;2022-10-16T16:51:16;21.50;99.90
32348;DHT22;18821;44.800;10.326;2022-10-16T16:53:45;21.40;99.90
32348;DHT22;18821;44.800;10.326;2022-10-16T16:56:13;21.30;99.90
32348;DHT22;18821;44.800;10.326;2022-10-16T16:58:39;21.30;99.90
32348;DHT22;18821;44.800;10.326;2022-10-16T17:01:06;21.20;99.90
32348;DHT22;18821;44.800;10.326;2022-10-16T17:03:34;21.20;99.90
32348;DHT22;18821;44.800;10.326;2022-10-16T17:06:06;21.10;99.90
32348;DHT22;18821;44.800;10.326;2022-10-16T17:08:34;21.00;99.90
32348;DHT22;18821;44.800;10.326;2022-10-16T17:11:01;21.00;99.90
32348;DHT22;18821;44.800;10.326;2022-10-16T17:13:29;20.90;99.90
32348;DHT22;18821;44.800;10.326;2022-10-16T17:15:55;20.90;99.90
32348;DHT22;18821;44.800;10.326;2022-10-16T17:18:22;20.90;99.90
32348;DHT22;18821;44.800;10.326;2022-10-16T17:20:49;20.90;99.90
32348;DHT22;18821;44.800;10.326;2022-10-16T17:23:17;20.90;99.90
32348;DHT22;18821;44.800;10.326;2022-10-16T17:25:43;20.80;99.90
32348;DHT22;18821;44.800;10.326;2022-10-16T17:28:11;20.80;99.90
32348;DHT22;18821;44.800;10.326;2022-10-16T17:30:39;20.80;99.90
32348;DHT22;18821;44.800;10.326;2022-10-16T17:33:05;20.70;99.90
32348;DHT22;18821;44.800;10.326;2022-10-16T17:35:43;20.70;99.90
32348;DHT22;18821;44.800;10.326;2022-10-16T17:38:10;20.60;99.90
32348;DHT22;18821;44.800;10.326;2022-10-16T17:40:37;20.60;99.90